North Evans, New York
Current Conditions -  °F | °C
As of 2:54 PM on Friday 21 Nov 2014 (Local Time) from KBUF Reporting Station
Broken Clouds Broken Clouds  
Wind Chill: 18°   Ceiling: 5000
Heat Index: 27°   Visibility: 10mi
Dew Point:   Wind: 9mph
Humidity: 47%   Direction: 290°WNW
Pressure: 30.39"   Gusts: NA
Location:  42.7°N, 78.94°W
Report Text: KBUF 211954Z 29008KT 10SM FEW027 BKN050 M03/M13 A3039 RMK AO2 SLP303 MDT CU DSNT NW-NE T10281128
Loading
Personal Weather Stations






























Interactive Weather Map New forecast layout! Learn more

10-Day Weather Forecast

Advertisements
Track Severe Weather on mobile